createdAt,value
2022-10-31T00:01:23.615Z,78.70
2022-10-31T00:03:51.316Z,79.03
2022-10-31T00:06:19.461Z,79.30
2022-10-31T00:08:48.909Z,79.44
2022-10-31T00:11:16.466Z,79.48
2022-10-31T00:13:44.093Z,78.81
2022-10-31T00:16:16.271Z,78.66
2022-10-31T00:18:43.897Z,78.71
2022-10-31T00:21:11.587Z,78.69
2022-10-31T00:23:39.233Z,78.71
2022-10-31T00:26:08.618Z,78.58
2022-10-31T00:28:36.227Z,78.34
2022-10-31T00:31:06.548Z,78.16
2022-10-31T00:33:35.554Z,77.77
2022-10-31T00:36:03.110Z,78.00
2022-10-31T00:38:30.855Z,78.06
2022-10-31T00:40:58.475Z,78.17
2022-10-31T00:43:27.479Z,78.05
2022-10-31T00:45:55.138Z,79.13
2022-10-31T00:48:22.828Z,79.54
2022-10-31T00:50:50.523Z,79.22
2022-10-31T00:53:18.146Z,79.07
2022-10-31T00:55:45.784Z,78.99
2022-10-31T01:00:55.679Z,78.45
2022-10-31T01:03:24.285Z,78.86
2022-10-31T01:06:03.288Z,79.18
2022-10-31T01:08:31.106Z,78.84
2022-10-31T01:11:08.208Z,78.54
2022-10-31T01:13:36.507Z,77.93
2022-10-31T01:16:07.565Z,78.20
2022-10-31T01:18:35.837Z,78.71
2022-10-31T01:21:06.285Z,78.62
2022-10-31T01:23:34.643Z,78.58
2022-10-31T01:26:08.574Z,78.32
2022-10-31T01:28:37.041Z,78.68
2022-10-31T01:31:08.962Z,78.78
2022-10-31T01:33:37.879Z,79.02
2022-10-31T01:36:14.863Z,79.85
2022-10-31T01:38:42.451Z,79.61
2022-10-31T01:41:10.882Z,79.11
2022-10-31T01:43:50.147Z,78.86
2022-10-31T01:46:22.981Z,79.00
2022-10-31T01:48:51.261Z,79.08
2022-10-31T01:51:22.245Z,78.89
2022-10-31T01:53:52.794Z,78.62
2022-10-31T01:56:20.772Z,79.18
2022-10-31T01:58:48.465Z,79.21
2022-10-31T02:01:18.389Z,79.74
2022-10-31T02:03:48.638Z,80.20
2022-10-31T02:06:29.173Z,79.91
2022-10-31T02:09:00.204Z,80.46
2022-10-31T02:11:30.165Z,80.42
2022-10-31T02:13:58.235Z,80.47
2022-10-31T02:16:25.959Z,80.87
2022-10-31T02:18:55.870Z,80.89
2022-10-31T02:21:32.878Z,81.13
2022-10-31T02:24:32.109Z,81.42
2022-10-31T02:27:27.986Z,81.80
2022-10-31T02:30:14.492Z,82.25
2022-10-31T02:33:06.853Z,82.07
2022-10-31T02:35:42.752Z,82.01
2022-10-31T02:38:22.894Z,81.98
2022-10-31T02:40:55.318Z,82.40
2022-10-31T02:43:28.932Z,82.21
2022-10-31T02:46:01.263Z,82.29
2022-10-31T02:48:33.282Z,81.80
2022-10-31T02:51:04.346Z,82.07
2022-10-31T02:53:35.235Z,81.82
2022-10-31T02:56:06.608Z,82.38
2022-10-31T02:58:41.575Z,82.82
2022-10-31T03:01:33.775Z,82.85
2022-10-31T03:04:44.318Z,82.69
2022-10-31T03:07:22.987Z,81.93
2022-10-31T03:10:01.778Z,81.85
2022-10-31T03:12:37.530Z,81.99
2022-10-31T03:15:14.441Z,82.34
2022-10-31T03:17:52.329Z,81.81
2022-10-31T03:20:26.848Z,82.46
2022-10-31T03:22:57.111Z,82.38
2022-10-31T03:25:25.682Z,82.53
2022-10-31T03:27:54.263Z,82.26
2022-10-31T03:30:22.329Z,81.85
2022-10-31T03:32:53.890Z,82.03
2022-10-31T03:35:26.300Z,82.28
2022-10-31T03:37:57.160Z,82.17
2022-10-31T03:40:28.243Z,82.40
2022-10-31T03:43:01.096Z,82.28
2022-10-31T03:45:32.333Z,82.00
2022-10-31T03:48:01.452Z,81.98
2022-10-31T03:50:37.881Z,82.13
2022-10-31T03:53:10.802Z,82.25
2022-10-31T03:55:44.028Z,82.54
2022-10-31T03:58:16.506Z,82.96
2022-10-31T04:00:47.933Z,82.72
2022-10-31T04:03:19.300Z,82.50
2022-10-31T04:05:51.192Z,83.08
2022-10-31T04:08:23.739Z,83.46
2022-10-31T04:10:53.274Z,83.57
2022-10-31T04:13:24.527Z,83.75
2022-10-31T04:15:54.846Z,83.65
2022-10-31T04:18:24.075Z,83.84
2022-10-31T04:21:01.855Z,83.64
2022-10-31T04:23:30.052Z,83.22
2022-10-31T04:25:57.647Z,83.64
2022-10-31T04:28:25.352Z,83.96
2022-10-31T04:30:53.447Z,84.32
2022-10-31T04:33:21.071Z,83.62
2022-10-31T04:35:48.857Z,83.45
2022-10-31T04:38:17.838Z,83.20
2022-10-31T04:40:47.136Z,83.22
2022-10-31T04:43:14.883Z,83.31
2022-10-31T04:45:42.492Z,83.64
2022-10-31T04:48:10.121Z,83.85
2022-10-31T04:50:37.678Z,83.95
2022-10-31T04:53:05.264Z,84.53
2022-10-31T04:55:34.234Z,84.73
2022-10-31T04:58:02.165Z,85.04
2022-10-31T05:00:30.369Z,84.87
2022-10-31T05:03:00.205Z,84.91
2022-10-31T05:05:30.393Z,84.45
2022-10-31T05:07:58.344Z,84.34
2022-10-31T05:10:27.957Z,83.93
2022-10-31T05:12:59.454Z,84.29
2022-10-31T05:15:29.154Z,84.04
2022-10-31T05:17:57.917Z,84.33
2022-10-31T05:20:28.032Z,84.71
2022-10-31T05:22:57.428Z,84.62
2022-10-31T05:25:27.115Z,84.78
2022-10-31T05:27:56.097Z,84.82
2022-10-31T05:30:27.912Z,84.73
2022-10-31T05:32:55.931Z,85.28
2022-10-31T05:35:25.901Z,85.17
2022-10-31T05:37:53.748Z,85.07
2022-10-31T05:40:22.705Z,85.23
2022-10-31T05:42:54.109Z,85.33
2022-10-31T05:45:22.906Z,85.47
2022-10-31T05:47:56.880Z,86.10
2022-10-31T05:50:25.111Z,85.64
2022-10-31T05:52:57.001Z,85.29
2022-10-31T05:55:24.607Z,85.44
2022-10-31T05:57:52.309Z,86.25
2022-10-31T06:00:20.572Z,86.39
2022-10-31T06:02:48.126Z,86.53
2022-10-31T06:05:17.394Z,87.19
2022-10-31T06:07:45.034Z,86.83
2022-10-31T06:10:12.664Z,86.89
2022-10-31T06:12:41.558Z,86.63
2022-10-31T06:15:10.473Z,86.94
2022-10-31T06:17:38.089Z,86.58
2022-10-31T06:20:06.875Z,86.80
2022-10-31T06:22:35.880Z,87.25
2022-10-31T06:25:03.537Z,86.95
2022-10-31T06:27:31.214Z,86.76
2022-10-31T06:29:58.777Z,86.38
2022-10-31T06:32:26.364Z,86.03
2022-10-31T06:34:53.911Z,85.80
2022-10-31T06:37:21.561Z,85.52
2022-10-31T06:39:50.609Z,85.39
2022-10-31T06:42:18.790Z,85.60
2022-10-31T06:44:46.398Z,85.66
2022-10-31T06:47:14.026Z,85.75
2022-10-31T06:49:41.674Z,86.41
2022-10-31T06:52:09.272Z,86.32
2022-10-31T06:54:36.906Z,86.03
2022-10-31T06:57:05.829Z,85.92
2022-10-31T06:59:33.498Z,86.32
2022-10-31T07:02:01.200Z,85.83
2022-10-31T07:04:28.852Z,85.81
2022-10-31T07:06:56.512Z,85.75
2022-10-31T07:09:24.125Z,85.27
2022-10-31T07:11:53.936Z,84.79
2022-10-31T07:14:22.881Z,84.24
2022-10-31T07:16:51.850Z,83.25
2022-10-31T07:19:19.682Z,83.53
2022-10-31T07:21:47.366Z,83.19
2022-10-31T07:24:15.030Z,82.42
2022-10-31T07:26:43.281Z,82.37
2022-10-31T07:29:10.970Z,82.66
2022-10-31T07:31:39.986Z,82.56
2022-10-31T07:34:07.555Z,82.81
2022-10-31T07:36:35.207Z,82.40
2022-10-31T07:39:03.259Z,82.46
2022-10-31T07:41:30.822Z,82.55
2022-10-31T07:43:58.623Z,82.14
2022-10-31T07:46:26.263Z,81.77
2022-10-31T07:48:55.268Z,81.71
2022-10-31T07:51:24.505Z,81.70
2022-10-31T07:53:52.080Z,81.80
2022-10-31T07:56:19.694Z,81.35
2022-10-31T07:58:47.317Z,81.10
2022-10-31T08:01:14.915Z,80.83
2022-10-31T08:03:42.490Z,80.75
2022-10-31T08:06:14.109Z,80.70
2022-10-31T08:08:41.890Z,80.55
2022-10-31T08:11:09.599Z,80.54
2022-10-31T08:13:37.210Z,80.18
2022-10-31T08:16:05.634Z,80.39
2022-10-31T08:18:33.210Z,79.94
2022-10-31T08:21:00.923Z,80.26
2022-10-31T08:23:29.916Z,79.90
2022-10-31T08:25:59.583Z,79.55
2022-10-31T08:28:27.274Z,79.56
2022-10-31T08:30:54.845Z,78.69
2022-10-31T08:33:22.413Z,78.08
2022-10-31T08:35:50.694Z,77.62
2022-10-31T08:38:18.451Z,77.55
2022-10-31T08:40:51.294Z,77.18
2022-10-31T08:43:20.090Z,77.04
2022-10-31T08:45:51.133Z,76.27
2022-10-31T08:48:19.415Z,76.15
2022-10-31T08:50:47.430Z,75.37
2022-10-31T08:53:18.123Z,74.32
2022-10-31T08:55:48.982Z,73.09
2022-10-31T08:58:18.580Z,72.80
2022-10-31T09:00:47.305Z,72.13
2022-10-31T09:03:16.373Z,71.88
2022-10-31T09:05:44.453Z,71.10
2022-10-31T09:08:16.306Z,70.38
2022-10-31T09:10:44.986Z,70.20
2022-10-31T09:13:15.254Z,69.82
2022-10-31T09:15:45.536Z,70.38
2022-10-31T09:18:14.700Z,70.73
2022-10-31T09:20:45.849Z,71.51
2022-10-31T09:23:15.122Z,71.85
2022-10-31T09:25:49.195Z,71.58
2022-10-31T09:28:22.042Z,71.54
2022-10-31T09:30:50.913Z,71.38
2022-10-31T09:33:18.876Z,71.39
2022-10-31T09:35:46.824Z,71.26
2022-10-31T09:38:16.086Z,71.18
2022-10-31T09:40:45.984Z,71.30
2022-10-31T09:43:19.871Z,71.37
2022-10-31T09:45:58.095Z,72.43
2022-10-31T09:48:42.587Z,72.37
2022-10-31T09:51:13.351Z,72.58
2022-10-31T09:53:45.606Z,74.32
2022-10-31T09:56:16.118Z,73.41
2022-10-31T09:58:46.820Z,73.65
2022-10-31T10:01:32.226Z,74.05
2022-10-31T10:04:04.033Z,74.59
2022-10-31T10:06:37.248Z,74.52
2022-10-31T10:09:05.119Z,71.85
2022-10-31T10:11:45.838Z,71.21
2022-10-31T10:14:26.531Z,70.59
2022-10-31T10:17:08.345Z,68.86
2022-10-31T10:19:58.500Z,68.14
2022-10-31T10:22:33.955Z,68.25
2022-10-31T10:25:16.799Z,67.13
2022-10-31T10:27:53.242Z,66.69
2022-10-31T10:30:22.951Z,67.41
2022-10-31T10:32:54.356Z,68.59
2022-10-31T10:35:26.492Z,68.33
2022-10-31T10:37:59.134Z,67.32
2022-10-31T10:40:29.105Z,66.63
2022-10-31T10:43:22.028Z,66.56
2022-10-31T10:46:12.892Z,66.08
2022-10-31T10:48:47.215Z,65.46
2022-10-31T10:51:46.320Z,66.59
2022-10-31T10:54:40.172Z,66.31
2022-10-31T10:57:21.835Z,64.96
2022-10-31T10:59:50.246Z,62.58
2022-10-31T11:02:23.775Z,59.19
2022-10-31T11:04:55.156Z,56.85
2022-10-31T11:07:23.284Z,57.44
2022-10-31T11:09:51.381Z,57.34
2022-10-31T11:12:23.417Z,56.79
2022-10-31T11:14:54.318Z,55.81
2022-10-31T11:17:30.402Z,53.88
2022-10-31T11:20:24.184Z,52.79
2022-10-31T11:23:02.192Z,53.59
2022-10-31T11:25:29.769Z,53.70
2022-10-31T11:28:02.219Z,54.23
2022-10-31T11:30:30.992Z,54.45
2022-10-31T11:33:02.921Z,54.60
2022-10-31T11:35:32.163Z,55.30
2022-10-31T11:38:03.319Z,55.04
2022-10-31T11:40:31.337Z,55.96
2022-10-31T11:43:00.872Z,57.52
2022-10-31T11:45:33.501Z,58.37
2022-10-31T11:48:03.340Z,58.82
2022-10-31T11:50:37.570Z,59.01
2022-10-31T11:53:06.214Z,58.69
2022-10-31T11:55:36.596Z,57.47
2022-10-31T11:58:05.137Z,57.62
2022-10-31T12:00:35.173Z,58.79
2022-10-31T12:03:20.227Z,59.25
2022-10-31T12:05:55.701Z,60.84
2022-10-31T12:08:23.408Z,61.53
2022-10-31T12:11:00.713Z,63.25
2022-10-31T12:13:35.921Z,64.42
2022-10-31T12:16:14.442Z,65.24
2022-10-31T12:19:01.591Z,66.28
2022-10-31T12:21:48.660Z,66.88
2022-10-31T12:24:30.161Z,67.55
2022-10-31T12:27:10.436Z,67.72
2022-10-31T12:29:52.760Z,66.25
2022-10-31T12:32:33.689Z,67.91
2022-10-31T12:35:27.614Z,67.04
2022-10-31T12:38:08.434Z,67.71
2022-10-31T12:40:56.860Z,67.11
2022-10-31T12:43:38.292Z,67.55
2022-10-31T12:46:09.931Z,68.16
2022-10-31T12:48:58.493Z,68.87
2022-10-31T12:51:35.192Z,70.26
2022-10-31T12:54:24.255Z,70.47
2022-10-31T12:57:03.769Z,70.66
2022-10-31T12:59:45.117Z,71.58
2022-10-31T13:02:18.689Z,71.99
2022-10-31T13:04:51.773Z,72.93
2022-10-31T13:07:25.070Z,74.12
2022-10-31T13:09:58.962Z,74.48
2022-10-31T13:12:32.061Z,74.92
2022-10-31T13:15:08.009Z,74.57
2022-10-31T13:17:38.996Z,75.30
2022-10-31T13:20:24.078Z,75.20
2022-10-31T13:22:55.495Z,74.90
2022-10-31T13:25:27.409Z,75.50
2022-10-31T13:27:59.014Z,75.50
2022-10-31T13:30:29.704Z,75.73
2022-10-31T13:33:04.274Z,75.57
2022-10-31T13:35:42.717Z,75.32
2022-10-31T13:38:22.692Z,75.12
2022-10-31T13:40:57.518Z,75.14
2022-10-31T13:43:33.098Z,74.93
2022-10-31T13:46:00.873Z,75.83
2022-10-31T13:48:37.674Z,74.86
2022-10-31T13:51:08.549Z,74.88
2022-10-31T13:53:42.979Z,74.40
2022-10-31T13:56:23.147Z,73.99
2022-10-31T13:59:23.869Z,74.14
2022-10-31T14:01:57.448Z,74.14
2022-10-31T14:04:28.307Z,74.68
2022-10-31T14:07:01.848Z,74.97
2022-10-31T14:09:33.684Z,75.41
2022-10-31T14:12:07.281Z,75.25
2022-10-31T14:14:43.611Z,75.71
2022-10-31T14:17:21.109Z,75.68
2022-10-31T14:20:03.873Z,75.68
2022-10-31T14:22:35.329Z,75.68
2022-10-31T14:25:31.120Z,74.88
2022-10-31T14:28:01.166Z,75.11
2022-10-31T14:30:31.156Z,75.67
2022-10-31T14:33:02.196Z,76.80
2022-10-31T14:35:51.717Z,78.05
2022-10-31T14:38:37.149Z,78.17
2022-10-31T14:41:22.586Z,79.01
2022-10-31T14:44:26.321Z,79.25
2022-10-31T14:47:04.210Z,79.68
2022-10-31T14:49:50.264Z,79.31
2022-10-31T14:52:20.698Z,79.93
2022-10-31T14:54:53.622Z,80.64
2022-10-31T14:57:24.513Z,81.04
2022-10-31T15:00:00.789Z,81.86
2022-10-31T15:02:37.726Z,80.76
2022-10-31T15:05:09.758Z,81.99
2022-10-31T15:07:40.886Z,82.34
2022-10-31T15:10:23.459Z,81.72
2022-10-31T15:12:51.266Z,80.42
2022-10-31T15:15:23.520Z,81.17
2022-10-31T15:17:54.237Z,80.75
2022-10-31T15:20:25.071Z,81.63
2022-10-31T15:22:53.008Z,81.93
2022-10-31T15:25:22.925Z,81.72
2022-10-31T15:27:51.474Z,81.15
2022-10-31T15:30:23.836Z,80.96
2022-10-31T15:32:58.287Z,81.63
2022-10-31T15:35:28.620Z,83.03
2022-10-31T15:37:57.483Z,83.70
2022-10-31T15:40:27.318Z,83.60
2022-10-31T15:42:58.333Z,83.36
2022-10-31T15:45:28.783Z,83.81
2022-10-31T15:48:00.257Z,82.75
2022-10-31T15:50:33.215Z,81.58
2022-10-31T15:53:02.655Z,80.56
2022-10-31T15:55:34.456Z,81.06
2022-10-31T15:58:06.707Z,80.63
2022-10-31T16:00:38.379Z,80.95
2022-10-31T16:03:08.481Z,80.83
2022-10-31T16:05:38.834Z,81.05
2022-10-31T16:08:22.782Z,81.61
2022-10-31T16:10:50.443Z,82.89
2022-10-31T16:13:18.173Z,82.95
2022-10-31T16:16:03.785Z,82.92
2022-10-31T16:18:43.253Z,83.38
2022-10-31T16:21:12.519Z,83.64
2022-10-31T16:23:46.422Z,83.48
2022-10-31T16:26:18.817Z,83.65
2022-10-31T16:29:02.657Z,84.11
2022-10-31T16:31:39.237Z,83.82
2022-10-31T16:34:17.068Z,83.89
2022-10-31T16:36:44.984Z,83.80
2022-10-31T16:39:14.499Z,83.82
2022-10-31T16:41:43.920Z,84.77
2022-10-31T16:44:21.301Z,85.37
2022-10-31T16:46:50.421Z,85.20
2022-10-31T16:49:19.613Z,85.10
2022-10-31T16:51:47.348Z,84.62
2022-10-31T16:54:14.980Z,84.63
2022-10-31T16:56:43.903Z,85.43
2022-10-31T16:59:16.280Z,86.38
2022-10-31T17:01:49.037Z,86.68
2022-10-31T17:04:18.178Z,86.34
2022-10-31T17:06:46.049Z,86.65
2022-10-31T17:09:13.636Z,86.96
2022-10-31T17:11:49.422Z,86.32
2022-10-31T17:14:18.248Z,86.84
2022-10-31T17:16:46.051Z,86.87
2022-10-31T17:19:14.189Z,86.44
2022-10-31T17:21:43.285Z,86.54
2022-10-31T17:24:14.507Z,86.13
2022-10-31T17:26:43.092Z,86.01
2022-10-31T17:29:12.135Z,86.00
2022-10-31T17:31:40.162Z,85.96
2022-10-31T17:34:08.617Z,86.14
2022-10-31T17:36:37.329Z,86.02
2022-10-31T17:39:09.269Z,86.03
2022-10-31T17:41:36.931Z,86.69
2022-10-31T17:44:04.843Z,86.83
2022-10-31T17:46:32.506Z,86.96
2022-10-31T17:49:01.712Z,87.20
2022-10-31T17:51:29.324Z,87.61
2022-10-31T17:53:56.953Z,88.39
2022-10-31T17:56:26.467Z,88.39
2022-10-31T17:58:54.107Z,88.36
2022-10-31T18:01:21.891Z,88.61
2022-10-31T18:03:49.637Z,88.86
2022-10-31T18:06:17.398Z,89.00
2022-10-31T18:08:45.701Z,88.42
2022-10-31T18:11:22.719Z,88.72
2022-10-31T18:13:56.234Z,88.75
2022-10-31T18:16:24.612Z,88.69
2022-10-31T18:18:53.602Z,88.80
2022-10-31T18:21:21.791Z,88.80
2022-10-31T18:23:49.439Z,89.74
2022-10-31T18:26:17.158Z,89.67
2022-10-31T18:28:44.820Z,89.79
2022-10-31T18:31:13.774Z,89.60
2022-10-31T18:33:42.493Z,89.28
2022-10-31T18:36:12.075Z,90.20
2022-10-31T18:38:41.436Z,90.00
2022-10-31T18:41:10.048Z,90.29
2022-10-31T18:43:37.697Z,90.32
2022-10-31T18:46:08.818Z,89.90
2022-10-31T18:48:38.676Z,90.00
2022-10-31T18:51:07.853Z,89.38
2022-10-31T18:53:36.784Z,89.40
2022-10-31T18:56:08.658Z,88.93
2022-10-31T18:58:36.545Z,88.96
2022-10-31T19:01:08.434Z,89.24
2022-10-31T19:03:37.842Z,89.05
2022-10-31T19:06:06.872Z,88.97
2022-10-31T19:08:35.213Z,88.89
2022-10-31T19:11:07.045Z,89.05
2022-10-31T19:13:35.040Z,89.07
2022-10-31T19:16:09.619Z,88.75
2022-10-31T19:18:39.269Z,89.60
2022-10-31T19:21:07.753Z,89.67
2022-10-31T19:23:35.699Z,90.44
2022-10-31T19:26:03.877Z,90.73
2022-10-31T19:28:32.293Z,90.65
2022-10-31T19:31:00.656Z,90.99
2022-10-31T19:33:34.929Z,90.27
2022-10-31T19:36:08.260Z,90.22
2022-10-31T19:38:36.685Z,90.54
2022-10-31T19:41:06.441Z,90.91
2022-10-31T19:43:34.428Z,90.84
2022-10-31T19:46:03.709Z,90.87
2022-10-31T19:48:31.924Z,90.00
2022-10-31T19:51:05.207Z,90.00
2022-10-31T19:53:34.765Z,89.48
2022-10-31T19:56:02.837Z,88.98
2022-10-31T19:58:33.122Z,88.55
2022-10-31T20:01:00.894Z,88.66
2022-10-31T20:03:28.694Z,88.75
2022-10-31T20:05:56.441Z,89.59
2022-10-31T20:08:24.026Z,89.57
2022-10-31T20:10:56.944Z,89.00
2022-10-31T20:13:25.700Z,88.47
2022-10-31T20:15:53.669Z,88.42
2022-10-31T20:18:21.264Z,88.94
2022-10-31T20:20:49.055Z,89.08
2022-10-31T20:23:16.655Z,89.19
2022-10-31T20:25:48.903Z,89.61
2022-10-31T20:28:18.278Z,89.61
2022-10-31T20:30:46.117Z,88.51
2022-10-31T20:33:14.118Z,88.42
2022-10-31T20:35:43.141Z,88.44
2022-10-31T20:38:11.273Z,88.18
2022-10-31T20:40:39.179Z,88.18
2022-10-31T20:43:07.330Z,88.93
2022-10-31T20:45:36.621Z,89.46
2022-10-31T20:48:04.955Z,90.46
2022-10-31T20:50:32.733Z,90.54
2022-10-31T20:53:00.898Z,91.26
2022-10-31T20:55:28.850Z,91.26
2022-10-31T20:57:56.436Z,91.54
2022-10-31T21:00:24.240Z,91.18
2022-10-31T21:02:53.278Z,90.89
2022-10-31T21:05:20.866Z,90.58
2022-10-31T21:07:48.476Z,90.45
2022-10-31T21:10:16.176Z,90.92
2022-10-31T21:12:45.351Z,90.77
2022-10-31T21:15:14.671Z,91.09
2022-10-31T21:17:43.013Z,91.65
2022-10-31T21:20:12.262Z,91.28
2022-10-31T21:22:40.293Z,91.04
2022-10-31T21:25:11.569Z,92.04
2022-10-31T21:27:39.188Z,92.51
2022-10-31T21:30:07.595Z,93.07
2022-10-31T21:32:35.417Z,93.18
2022-10-31T21:35:02.949Z,93.36
2022-10-31T21:37:32.032Z,94.50
2022-10-31T21:39:59.901Z,95.35
2022-10-31T21:42:27.583Z,95.73
2022-10-31T21:44:55.325Z,95.48
2022-10-31T21:47:23.056Z,96.18
2022-10-31T21:49:50.770Z,97.04
2022-10-31T21:52:18.510Z,97.51
2022-10-31T21:54:46.673Z,97.33
2022-10-31T21:57:14.373Z,96.78
2022-10-31T21:59:45.733Z,96.69
2022-10-31T22:02:13.638Z,97.19
2022-10-31T22:04:41.840Z,97.99
2022-10-31T22:07:09.566Z,97.25
2022-10-31T22:09:37.297Z,96.43
2022-10-31T22:12:09.012Z,96.51
2022-10-31T22:14:36.672Z,96.10
2022-10-31T22:17:04.349Z,96.15
2022-10-31T22:19:32.033Z,95.25
2022-10-31T22:21:59.757Z,94.30
2022-10-31T22:24:27.400Z,93.85
2022-10-31T22:26:55.035Z,94.03
2022-10-31T22:29:24.077Z,93.48
2022-10-31T22:31:57.262Z,92.90
2022-10-31T22:34:27.521Z,92.50
2022-10-31T22:36:55.928Z,91.99
2022-10-31T22:39:23.623Z,93.10
2022-10-31T22:41:51.340Z,94.57
2022-10-31T22:44:19.072Z,95.30
2022-10-31T22:46:48.116Z,96.56
2022-10-31T22:49:16.446Z,97.14
2022-10-31T22:51:45.141Z,97.61
2022-10-31T22:54:17.993Z,97.92
2022-10-31T22:56:45.808Z,98.25
2022-10-31T22:59:14.755Z,97.88
2022-10-31T23:01:44.719Z,97.87
2022-10-31T23:04:14.743Z,97.78
2022-10-31T23:06:42.374Z,98.46
2022-10-31T23:09:10.157Z,98.17
2022-10-31T23:11:40.530Z,98.60
2022-10-31T23:14:16.196Z,98.91
2022-10-31T23:16:46.485Z,99.09
2022-10-31T23:19:17.760Z,98.61
2022-10-31T23:21:56.328Z,99.78
2022-10-31T23:24:26.933Z,99.54
2022-10-31T23:27:10.486Z,99.88
2022-10-31T23:29:44.781Z,99.77
2022-10-31T23:32:16.036Z,100.00
2022-10-31T23:34:45.837Z,100.00
2022-10-31T23:37:14.001Z,99.70
2022-10-31T23:39:42.177Z,100.00
2022-10-31T23:42:09.798Z,99.75
2022-10-31T23:44:37.625Z,99.17
2022-10-31T23:47:05.640Z,99.84
2022-10-31T23:49:33.254Z,99.66
2022-10-31T23:52:02.317Z,99.07
2022-10-31T23:54:29.982Z,99.03
2022-10-31T23:56:59.018Z,100.00
2022-10-31T23:59:28.920Z,99.90
